createdAt,value
2024-03-12T00:00:30.201Z,64.43
2024-03-12T00:03:18.622Z,64.48
2024-03-12T00:05:46.782Z,64.60
2024-03-12T00:08:15.464Z,64.69
2024-03-12T00:10:44.672Z,64.80
2024-03-12T00:13:13.126Z,64.89
2024-03-12T00:15:42.987Z,64.76
2024-03-12T00:18:12.076Z,64.79
2024-03-12T00:20:40.663Z,65.13
2024-03-12T00:23:09.186Z,65.26
2024-03-12T00:25:38.382Z,65.16
2024-03-12T00:28:07.149Z,64.97
2024-03-12T00:30:35.653Z,64.69
2024-03-12T00:33:05.249Z,64.63
2024-03-12T00:35:36.943Z,64.68
2024-03-12T00:38:05.682Z,64.71
2024-03-12T00:40:40.286Z,64.60
2024-03-12T00:43:09.015Z,64.82
2024-03-12T00:45:40.781Z,65.12
2024-03-12T00:48:11.328Z,65.27
2024-03-12T00:50:41.194Z,64.98
2024-03-12T00:53:09.792Z,65.40
2024-03-12T00:55:37.885Z,65.27
2024-03-12T00:58:11.728Z,65.06
2024-03-12T01:00:42.229Z,65.02
2024-03-12T01:03:11.160Z,65.31
2024-03-12T01:05:40.081Z,65.28
2024-03-12T01:08:10.400Z,65.24
2024-03-12T01:10:38.640Z,65.12
2024-03-12T01:13:08.100Z,65.14
2024-03-12T01:15:36.648Z,64.95
2024-03-12T01:18:05.373Z,64.79
2024-03-12T01:20:36.284Z,64.68
2024-03-12T01:23:06.953Z,64.63
2024-03-12T01:25:37.554Z,64.59
2024-03-12T01:28:08.602Z,64.54
2024-03-12T01:30:38.503Z,64.40
2024-03-12T01:33:07.607Z,64.24
2024-03-12T01:35:40.567Z,64.50
2024-03-12T01:38:11.768Z,64.37
2024-03-12T01:40:42.997Z,64.59
2024-03-12T01:43:13.989Z,64.68
2024-03-12T01:45:43.812Z,64.83
2024-03-12T01:48:13.197Z,65.02
2024-03-12T01:50:42.356Z,64.99
2024-03-12T01:53:12.385Z,65.22
2024-03-12T01:55:45.442Z,65.36
2024-03-12T01:58:16.341Z,65.48
2024-03-12T02:00:46.030Z,65.70
2024-03-12T02:03:15.374Z,65.82
2024-03-12T02:05:43.894Z,65.83
2024-03-12T02:08:12.664Z,65.65
2024-03-12T02:10:41.338Z,65.88
2024-03-12T02:13:09.609Z,66.13
2024-03-12T02:15:37.853Z,66.34
2024-03-12T02:18:09.913Z,66.34
2024-03-12T02:20:39.634Z,66.75
2024-03-12T02:23:08.155Z,66.68
2024-03-12T02:25:36.493Z,66.82
2024-03-12T02:28:05.033Z,66.74
2024-03-12T02:30:33.239Z,66.90
2024-03-12T02:33:04.072Z,67.39
2024-03-12T02:35:35.842Z,67.46
2024-03-12T02:38:04.295Z,67.46
2024-03-12T02:40:32.531Z,67.63
2024-03-12T02:43:00.672Z,67.77
2024-03-12T02:45:29.391Z,68.22
2024-03-12T02:47:57.488Z,68.45
2024-03-12T02:50:25.906Z,68.52
2024-03-12T02:52:54.809Z,68.94
2024-03-12T02:55:22.761Z,68.91
2024-03-12T02:57:50.791Z,68.93
2024-03-12T03:00:18.968Z,69.07
2024-03-12T03:02:49.932Z,69.03
2024-03-12T03:05:18.182Z,69.54
2024-03-12T03:07:48.485Z,69.54
2024-03-12T03:10:16.724Z,69.40
2024-03-12T03:12:44.917Z,69.40
2024-03-12T03:15:14.380Z,69.48
2024-03-12T03:17:44.378Z,69.21
2024-03-12T03:20:15.826Z,69.70
2024-03-12T03:22:44.467Z,69.88
2024-03-12T03:25:14.046Z,70.03
2024-03-12T03:27:43.593Z,70.30
2024-03-12T03:30:19.849Z,70.32
2024-03-12T03:32:49.435Z,70.39
2024-03-12T03:35:19.656Z,70.20
2024-03-12T03:37:48.121Z,70.58
2024-03-12T03:40:24.581Z,70.62
2024-03-12T03:42:57.652Z,70.65
2024-03-12T03:45:26.599Z,70.70
2024-03-12T03:47:54.776Z,70.93
2024-03-12T03:50:23.163Z,71.05
2024-03-12T03:52:54.221Z,71.09
2024-03-12T03:55:25.474Z,71.28
2024-03-12T03:57:54.200Z,71.48
2024-03-12T04:00:29.898Z,71.44
2024-03-12T04:02:58.148Z,71.70
2024-03-12T04:05:26.460Z,71.63
2024-03-12T04:07:55.497Z,71.86
2024-03-12T04:10:23.660Z,71.99
2024-03-12T04:12:52.520Z,72.20
2024-03-12T04:15:20.723Z,72.17
2024-03-12T04:17:49.170Z,72.20
2024-03-12T04:20:21.140Z,72.40
2024-03-12T04:22:49.268Z,72.68
2024-03-12T04:25:18.748Z,72.71
2024-03-12T04:27:47.382Z,72.63
2024-03-12T04:30:16.625Z,72.76
2024-03-12T04:32:46.229Z,72.81
2024-03-12T04:35:14.933Z,72.72
2024-03-12T04:37:43.575Z,72.79
2024-03-12T04:40:13.141Z,72.92
2024-03-12T04:42:45.159Z,72.81
2024-03-12T04:45:13.423Z,72.73
2024-03-12T04:47:43.272Z,73.03
2024-03-12T04:50:15.841Z,73.12
2024-03-12T04:52:44.466Z,73.38
2024-03-12T04:55:14.682Z,73.38
2024-03-12T04:57:44.926Z,73.37
2024-03-12T05:00:20.082Z,73.46
2024-03-12T05:02:52.706Z,73.28
2024-03-12T05:05:25.043Z,73.29
2024-03-12T05:07:53.948Z,73.25
2024-03-12T05:10:22.676Z,73.38
2024-03-12T05:12:53.795Z,73.37
2024-03-12T05:15:23.103Z,73.67
2024-03-12T05:17:51.466Z,73.63
2024-03-12T05:20:24.549Z,73.80
2024-03-12T05:22:55.311Z,73.98
2024-03-12T05:25:40.900Z,74.06
2024-03-12T05:28:10.941Z,74.08
2024-03-12T05:30:43.765Z,73.93
2024-03-12T05:33:15.892Z,73.75
2024-03-12T05:35:52.637Z,73.68
2024-03-12T05:38:34.162Z,73.59
2024-03-12T05:41:16.367Z,73.94
2024-03-12T05:44:03.207Z,74.09
2024-03-12T05:46:50.811Z,74.13
2024-03-12T05:49:20.933Z,74.03
2024-03-12T05:51:49.316Z,74.06
2024-03-12T05:54:17.415Z,73.86
2024-03-12T05:56:45.599Z,73.58
2024-03-12T05:59:13.744Z,73.78
2024-03-12T06:01:41.866Z,73.92
2024-03-12T06:04:10.235Z,74.07
2024-03-12T06:06:38.457Z,74.14
2024-03-12T06:09:10.600Z,73.80
2024-03-12T06:11:38.788Z,73.61
2024-03-12T06:14:10.448Z,73.77
2024-03-12T06:16:38.595Z,73.79
2024-03-12T06:19:06.878Z,73.72
2024-03-12T06:21:35.142Z,73.74
2024-03-12T06:24:03.411Z,73.94
2024-03-12T06:26:32.073Z,74.06
2024-03-12T06:29:00.716Z,74.10
2024-03-12T06:31:30.526Z,73.73
2024-03-12T06:33:58.804Z,73.64
2024-03-12T06:36:26.919Z,73.31
2024-03-12T06:38:55.129Z,72.87
2024-03-12T06:41:25.754Z,73.24
2024-03-12T06:43:54.441Z,73.06
2024-03-12T06:46:22.585Z,72.93
2024-03-12T06:48:50.930Z,73.08
2024-03-12T06:51:19.152Z,73.13
2024-03-12T06:53:47.340Z,72.96
2024-03-12T06:56:17.604Z,73.06
2024-03-12T06:58:46.689Z,73.12
2024-03-12T07:01:15.840Z,72.92
2024-03-12T07:03:44.871Z,72.67
2024-03-12T07:06:13.347Z,72.66
2024-03-12T07:08:42.879Z,72.49
2024-03-12T07:11:11.770Z,72.63
2024-03-12T07:13:41.730Z,72.90
2024-03-12T07:16:11.207Z,72.89
2024-03-12T07:18:39.798Z,73.17
2024-03-12T07:21:08.011Z,73.28
2024-03-12T07:23:38.101Z,73.12
2024-03-12T07:26:07.908Z,73.18
2024-03-12T07:28:36.704Z,73.52
2024-03-12T07:31:05.156Z,73.54
2024-03-12T07:33:33.664Z,73.74
2024-03-12T07:36:05.491Z,73.84
2024-03-12T07:38:33.961Z,73.59
2024-03-12T07:41:02.170Z,73.33
2024-03-12T07:43:31.385Z,73.27
2024-03-12T07:46:02.078Z,73.34
2024-03-12T07:48:30.309Z,73.44
2024-03-12T07:51:01.937Z,73.60
2024-03-12T07:53:32.119Z,73.19
2024-03-12T07:56:02.384Z,73.41
2024-03-12T07:58:30.671Z,73.22
2024-03-12T08:01:00.252Z,73.23
2024-03-12T08:03:29.632Z,73.30
2024-03-12T08:05:58.011Z,73.07
2024-03-12T08:08:27.266Z,72.57
2024-03-12T08:10:56.672Z,72.27
2024-03-12T08:13:26.615Z,72.37
2024-03-12T08:15:54.884Z,72.66
2024-03-12T08:18:24.014Z,72.66
2024-03-12T08:20:53.353Z,72.49
2024-03-12T08:23:21.793Z,72.18
2024-03-12T08:25:56.004Z,72.44
2024-03-12T08:28:28.191Z,72.32
2024-03-12T08:31:02.046Z,72.61
2024-03-12T08:33:33.217Z,72.76
2024-03-12T08:36:02.452Z,72.94
2024-03-12T08:38:30.694Z,71.84
2024-03-12T08:40:58.931Z,72.06
2024-03-12T08:43:27.310Z,72.04
2024-03-12T08:45:55.795Z,71.97
2024-03-12T08:48:23.871Z,72.18
2024-03-12T08:50:51.965Z,71.96
2024-03-12T08:53:20.159Z,71.76
2024-03-12T08:55:48.493Z,71.83
2024-03-12T08:58:17.526Z,71.58
2024-03-12T09:00:45.775Z,71.40
2024-03-12T09:03:13.978Z,71.59
2024-03-12T09:05:42.439Z,71.26
2024-03-12T09:08:10.838Z,70.93
2024-03-12T09:10:39.076Z,70.77
2024-03-12T09:13:07.559Z,70.84
2024-03-12T09:15:37.344Z,70.63
2024-03-12T09:18:07.854Z,70.97
2024-03-12T09:20:38.142Z,70.93
2024-03-12T09:23:06.577Z,70.58
2024-03-12T09:25:34.797Z,70.01
2024-03-12T09:28:06.197Z,70.13
2024-03-12T09:30:35.565Z,70.38
2024-03-12T09:33:05.460Z,70.48
2024-03-12T09:35:33.763Z,70.53
2024-03-12T09:38:02.350Z,70.37
2024-03-12T09:40:31.079Z,70.34
2024-03-12T09:43:01.555Z,70.56
2024-03-12T09:45:30.854Z,70.31
2024-03-12T09:47:59.190Z,70.38
2024-03-12T09:50:30.612Z,70.39
2024-03-12T09:53:03.421Z,70.34
2024-03-12T09:55:33.149Z,70.42
2024-03-12T09:58:01.347Z,70.37
2024-03-12T10:00:29.672Z,70.49
2024-03-12T10:03:01.048Z,70.45
2024-03-12T10:05:30.140Z,70.34
2024-03-12T10:08:14.942Z,70.20
2024-03-12T10:10:48.396Z,70.14
2024-03-12T10:13:18.879Z,70.11
2024-03-12T10:16:00.549Z,69.47
2024-03-12T10:18:31.441Z,68.86
2024-03-12T10:21:02.541Z,68.86
2024-03-12T10:23:35.017Z,68.79
2024-03-12T10:26:11.585Z,68.78
2024-03-12T10:28:46.599Z,68.97
2024-03-12T10:31:15.960Z,68.81
2024-03-12T10:33:50.209Z,68.87
2024-03-12T10:36:34.985Z,69.08
2024-03-12T10:39:13.400Z,68.60
2024-03-12T10:41:45.721Z,68.93
2024-03-12T10:44:13.772Z,68.31
2024-03-12T10:46:44.825Z,67.97
2024-03-12T10:49:14.541Z,67.66
2024-03-12T10:51:44.790Z,67.96
2024-03-12T10:54:22.970Z,68.63
2024-03-12T10:56:51.618Z,68.55
2024-03-12T10:59:21.057Z,68.36
2024-03-12T11:01:49.810Z,68.59
2024-03-12T11:04:22.177Z,68.58
2024-03-12T11:06:53.098Z,68.64
2024-03-12T11:09:29.718Z,68.71
2024-03-12T11:11:58.106Z,68.40
2024-03-12T11:14:29.119Z,68.10
2024-03-12T11:16:57.836Z,68.14
2024-03-12T11:19:27.672Z,67.77
2024-03-12T11:22:06.932Z,67.57
2024-03-12T11:24:47.224Z,67.69
2024-03-12T11:27:30.744Z,67.73
2024-03-12T11:30:05.138Z,67.88
2024-03-12T11:32:40.083Z,67.85
2024-03-12T11:35:27.953Z,67.42
2024-03-12T11:37:56.031Z,67.01
2024-03-12T11:40:30.239Z,66.75
2024-03-12T11:42:59.186Z,66.42
2024-03-12T11:45:43.764Z,66.17
2024-03-12T11:48:14.677Z,66.26
2024-03-12T11:50:45.872Z,66.38
2024-03-12T11:53:24.362Z,66.59
2024-03-12T11:56:09.700Z,66.46
2024-03-12T11:58:49.626Z,66.41
2024-03-12T12:01:23.361Z,66.80
2024-03-12T12:04:01.407Z,66.82
2024-03-12T12:06:31.319Z,66.63
2024-03-12T12:09:07.599Z,66.66
2024-03-12T12:11:40.680Z,66.78
2024-03-12T12:14:11.060Z,66.44
2024-03-12T12:16:41.156Z,66.39
2024-03-12T12:19:16.626Z,66.36
2024-03-12T12:21:53.559Z,66.63
2024-03-12T12:24:26.627Z,66.63
2024-03-12T12:26:57.406Z,66.82
2024-03-12T12:29:26.645Z,66.96
2024-03-12T12:31:55.108Z,67.08
2024-03-12T12:34:26.643Z,67.18
2024-03-12T12:36:57.269Z,67.07
2024-03-12T12:39:35.966Z,67.03
2024-03-12T12:42:10.974Z,67.20
2024-03-12T12:44:38.992Z,67.45
2024-03-12T12:47:07.475Z,67.70
2024-03-12T12:49:38.144Z,67.91
2024-03-12T12:52:06.465Z,68.35
2024-03-12T12:54:37.261Z,68.52
2024-03-12T12:57:05.852Z,68.08
2024-03-12T12:59:36.002Z,68.03
2024-03-12T13:02:15.521Z,68.39
2024-03-12T13:04:43.654Z,68.06
2024-03-12T13:07:14.475Z,67.83
2024-03-12T13:09:43.031Z,67.70
2024-03-12T13:12:15.044Z,67.56
2024-03-12T13:14:45.578Z,67.84
2024-03-12T13:17:14.847Z,68.57
2024-03-12T13:19:43.917Z,69.31
2024-03-12T13:22:16.487Z,69.63
2024-03-12T13:24:48.245Z,70.13
2024-03-12T13:27:16.416Z,70.11
2024-03-12T13:29:44.639Z,70.12
2024-03-12T13:32:13.920Z,70.24
2024-03-12T13:34:43.156Z,69.96
2024-03-12T13:37:13.798Z,70.06
2024-03-12T13:39:42.243Z,70.14
2024-03-12T13:42:11.610Z,70.21
2024-03-12T13:44:39.914Z,70.04
2024-03-12T13:47:08.160Z,69.95
2024-03-12T13:49:36.365Z,69.56
2024-03-12T13:52:05.068Z,69.62
2024-03-12T13:54:33.622Z,69.70
2024-03-12T13:57:01.825Z,69.65
2024-03-12T13:59:30.179Z,69.42
2024-03-12T14:01:59.115Z,69.30
2024-03-12T14:04:32.193Z,69.60
2024-03-12T14:07:01.184Z,69.71
2024-03-12T14:09:29.201Z,69.47
2024-03-12T14:11:57.470Z,69.46
2024-03-12T14:14:25.602Z,69.69
2024-03-12T14:16:53.846Z,69.63
2024-03-12T14:19:22.530Z,69.46
2024-03-12T14:21:50.778Z,69.21
2024-03-12T14:24:18.840Z,68.95
2024-03-12T14:26:47.137Z,68.85
2024-03-12T14:29:15.225Z,68.68
2024-03-12T14:31:43.406Z,69.11
2024-03-12T14:34:12.094Z,69.32
2024-03-12T14:36:41.418Z,69.04
2024-03-12T14:39:13.689Z,69.18
2024-03-12T14:41:43.176Z,68.68
2024-03-12T14:44:11.358Z,67.96
2024-03-12T14:46:42.189Z,67.28
2024-03-12T14:49:10.607Z,66.68
2024-03-12T14:51:40.592Z,66.77
2024-03-12T14:54:11.131Z,66.24
2024-03-12T14:56:39.667Z,65.64
2024-03-12T14:59:07.878Z,65.51
2024-03-12T15:01:37.436Z,65.38
2024-03-12T15:04:05.724Z,65.53
2024-03-12T15:06:33.982Z,65.77
2024-03-12T15:09:04.153Z,65.88
2024-03-12T15:11:32.955Z,66.05
2024-03-12T15:14:01.249Z,66.07
2024-03-12T15:16:29.429Z,66.15
2024-03-12T15:18:57.510Z,66.32
2024-03-12T15:21:25.688Z,66.29
2024-03-12T15:23:53.988Z,66.28
2024-03-12T15:26:23.594Z,66.11
2024-03-12T15:28:51.758Z,66.31
2024-03-12T15:31:19.916Z,66.22
2024-03-12T15:33:48.211Z,66.28
2024-03-12T15:36:17.149Z,66.36
2024-03-12T15:38:45.956Z,66.40
2024-03-12T15:41:14.168Z,66.29
2024-03-12T15:43:42.286Z,66.37
2024-03-12T15:46:12.529Z,66.22
2024-03-12T15:48:42.632Z,66.36
2024-03-12T15:51:11.527Z,66.37
2024-03-12T15:53:43.482Z,66.34
2024-03-12T15:56:15.137Z,66.53
2024-03-12T15:58:45.474Z,67.13
2024-03-12T16:01:14.774Z,67.32
2024-03-12T16:03:43.323Z,67.44
2024-03-12T16:06:13.009Z,67.80
2024-03-12T16:08:44.498Z,68.26
2024-03-12T16:11:13.358Z,68.86
2024-03-12T16:13:41.501Z,69.45
2024-03-12T16:16:09.737Z,70.17
2024-03-12T16:18:38.024Z,70.75
2024-03-12T16:21:06.298Z,71.11
2024-03-12T16:23:34.392Z,71.22
2024-03-12T16:26:04.469Z,71.24
2024-03-12T16:28:32.574Z,71.12
2024-03-12T16:31:00.934Z,71.12
2024-03-12T16:33:30.594Z,70.89
2024-03-12T16:35:58.930Z,70.63
2024-03-12T16:38:27.417Z,69.87
2024-03-12T16:40:57.419Z,69.72
2024-03-12T16:43:27.116Z,69.64
2024-03-12T16:45:55.274Z,69.73
2024-03-12T16:48:23.862Z,69.76
2024-03-12T16:50:53.978Z,69.92
2024-03-12T16:53:22.323Z,69.97
2024-03-12T16:55:50.823Z,70.34
2024-03-12T16:58:19.389Z,70.76
2024-03-12T17:00:48.249Z,70.62
2024-03-12T17:03:18.051Z,70.90
2024-03-12T17:05:47.029Z,71.26
2024-03-12T17:08:15.216Z,71.72
2024-03-12T17:10:43.611Z,72.10
2024-03-12T17:13:12.627Z,72.35
2024-03-12T17:15:45.494Z,72.20
2024-03-12T17:18:14.266Z,72.38
2024-03-12T17:20:42.792Z,72.63
2024-03-12T17:23:14.032Z,73.26
2024-03-12T17:25:43.395Z,73.54
2024-03-12T17:28:12.667Z,73.83
2024-03-12T17:30:41.154Z,73.99
2024-03-12T17:33:10.630Z,74.32
2024-03-12T17:35:39.627Z,74.61
2024-03-12T17:38:14.138Z,74.80
2024-03-12T17:40:42.701Z,74.92
2024-03-12T17:43:11.585Z,74.83
2024-03-12T17:45:40.644Z,74.70
2024-03-12T17:48:13.016Z,74.53
2024-03-12T17:50:41.530Z,74.51
2024-03-12T17:53:11.827Z,74.44
2024-03-12T17:55:44.905Z,74.80
2024-03-12T17:58:13.314Z,74.76
2024-03-12T18:00:41.852Z,74.92
2024-03-12T18:03:10.589Z,74.78
2024-03-12T18:05:38.871Z,74.69
2024-03-12T18:08:14.598Z,74.80
2024-03-12T18:10:46.782Z,75.10
2024-03-12T18:13:15.420Z,75.05
2024-03-12T18:15:43.632Z,75.14
2024-03-12T18:18:12.237Z,75.06
2024-03-12T18:20:42.178Z,74.98
2024-03-12T18:23:10.356Z,74.78
2024-03-12T18:25:38.508Z,74.56
2024-03-12T18:28:08.790Z,74.43
2024-03-12T18:30:37.770Z,74.30
2024-03-12T18:33:06.008Z,74.63
2024-03-12T18:35:34.202Z,74.71
2024-03-12T18:38:04.623Z,75.13
2024-03-12T18:40:33.189Z,75.28
2024-03-12T18:43:04.593Z,74.99
2024-03-12T18:45:32.844Z,75.04
2024-03-12T18:48:01.427Z,75.11
2024-03-12T18:50:32.032Z,75.42
2024-03-12T18:53:00.389Z,75.25
2024-03-12T18:55:29.146Z,75.11
2024-03-12T18:57:58.468Z,75.42
2024-03-12T19:00:27.891Z,75.68
2024-03-12T19:03:07.191Z,75.98
2024-03-12T19:05:37.261Z,76.17
2024-03-12T19:08:05.766Z,76.11
2024-03-12T19:10:34.950Z,76.04
2024-03-12T19:13:03.438Z,75.97
2024-03-12T19:15:37.556Z,76.00
2024-03-12T19:18:15.051Z,76.06
2024-03-12T19:20:43.629Z,76.25
2024-03-12T19:23:12.485Z,76.20
2024-03-12T19:25:40.806Z,76.41
2024-03-12T19:28:09.553Z,76.21
2024-03-12T19:30:38.048Z,76.16
2024-03-12T19:33:06.804Z,76.09
2024-03-12T19:35:37.548Z,76.50
2024-03-12T19:38:07.155Z,77.20
2024-03-12T19:40:36.312Z,77.82
2024-03-12T19:43:04.875Z,77.92
2024-03-12T19:45:34.869Z,78.01
2024-03-12T19:48:03.713Z,78.08
2024-03-12T19:50:32.344Z,78.31
2024-03-12T19:53:00.570Z,78.22
2024-03-12T19:55:31.925Z,78.07
2024-03-12T19:58:01.721Z,78.45
2024-03-12T20:00:33.919Z,78.05
2024-03-12T20:03:06.917Z,78.00
2024-03-12T20:05:37.357Z,77.99
2024-03-12T20:08:11.038Z,78.56
2024-03-12T20:10:40.263Z,78.70
2024-03-12T20:13:10.850Z,78.66
2024-03-12T20:15:46.080Z,78.88
2024-03-12T20:18:15.541Z,78.84
2024-03-12T20:20:44.801Z,78.93
2024-03-12T20:23:13.054Z,78.61
2024-03-12T20:25:41.686Z,78.61
2024-03-12T20:28:13.044Z,78.80
2024-03-12T20:30:44.080Z,79.03
2024-03-12T20:33:14.702Z,79.11
2024-03-12T20:35:45.074Z,79.20
2024-03-12T20:38:15.656Z,78.76
2024-03-12T20:40:44.403Z,78.42
2024-03-12T20:43:13.149Z,78.56
2024-03-12T20:45:42.269Z,78.34
2024-03-12T20:48:11.873Z,78.19
2024-03-12T20:50:41.230Z,78.01
2024-03-12T20:53:11.743Z,78.39
2024-03-12T20:55:40.391Z,78.60
2024-03-12T20:58:08.939Z,78.55
2024-03-12T21:00:39.118Z,78.43
2024-03-12T21:03:10.708Z,78.42
2024-03-12T21:05:40.220Z,78.37
2024-03-12T21:08:08.455Z,78.23
2024-03-12T21:10:38.961Z,78.05
2024-03-12T21:13:07.272Z,78.02
2024-03-12T21:15:36.268Z,77.99
2024-03-12T21:18:07.187Z,78.42
2024-03-12T21:20:35.749Z,78.44
2024-03-12T21:23:09.793Z,78.43
2024-03-12T21:25:38.164Z,78.55
2024-03-12T21:28:07.052Z,78.94
2024-03-12T21:30:37.403Z,78.92
2024-03-12T21:33:05.713Z,78.89
2024-03-12T21:35:35.164Z,78.98
2024-03-12T21:38:03.472Z,78.82
2024-03-12T21:40:34.076Z,78.59
2024-03-12T21:43:05.512Z,78.72
2024-03-12T21:45:36.673Z,78.82
2024-03-12T21:48:08.217Z,78.98
2024-03-12T21:50:36.877Z,79.35
2024-03-12T21:53:09.272Z,80.07
2024-03-12T21:55:38.917Z,80.25
2024-03-12T21:58:08.885Z,80.29
2024-03-12T22:00:37.499Z,79.89
2024-03-12T22:03:05.685Z,79.70
2024-03-12T22:05:35.538Z,79.47
2024-03-12T22:08:06.001Z,79.67
2024-03-12T22:10:35.550Z,79.86
2024-03-12T22:13:03.933Z,79.54
2024-03-12T22:15:32.121Z,79.51
2024-03-12T22:18:00.335Z,79.96
2024-03-12T22:20:28.426Z,80.38
2024-03-12T22:22:56.581Z,80.44
2024-03-12T22:25:24.811Z,80.54
2024-03-12T22:27:53.066Z,80.25
2024-03-12T22:30:22.332Z,79.86
2024-03-12T22:32:50.561Z,79.35
2024-03-12T22:35:19.720Z,79.30
2024-03-12T22:37:49.498Z,79.50
2024-03-12T22:40:19.910Z,79.94
2024-03-12T22:42:49.209Z,80.38
2024-03-12T22:45:18.012Z,80.27
2024-03-12T22:47:46.608Z,80.56
2024-03-12T22:50:15.526Z,80.94
2024-03-12T22:52:47.343Z,81.44
2024-03-12T22:55:16.766Z,81.30
2024-03-12T22:57:46.300Z,81.15
2024-03-12T23:00:44.766Z,81.61
2024-03-12T23:03:14.318Z,82.01
2024-03-12T23:05:43.454Z,82.21
2024-03-12T23:08:12.748Z,82.19
2024-03-12T23:10:42.691Z,82.10
2024-03-12T23:13:11.655Z,81.83
2024-03-12T23:15:40.293Z,81.67
2024-03-12T23:18:13.034Z,81.53
2024-03-12T23:20:41.891Z,81.74
2024-03-12T23:23:10.078Z,81.55
2024-03-12T23:25:40.141Z,81.37
2024-03-12T23:28:08.226Z,81.61
2024-03-12T23:30:37.410Z,81.51
2024-03-12T23:33:09.104Z,81.61
2024-03-12T23:35:37.954Z,81.29
2024-03-12T23:38:06.801Z,81.28
2024-03-12T23:40:35.094Z,81.35
2024-03-12T23:43:03.536Z,81.55
2024-03-12T23:45:32.144Z,81.81
2024-03-12T23:48:03.903Z,81.93
2024-03-12T23:50:32.510Z,81.53
2024-03-12T23:53:01.099Z,81.72
2024-03-12T23:55:29.693Z,81.72
2024-03-12T23:57:58.229Z,81.49
